sensor_id;sensor_type;location;lat;lon;timestamp;pressure;altitude;pressure_sealevel;temperature;humidity
73338;BME280;61575;49.908;35.556;2023-11-19T00:00:07;99577.88;;;-1.95;79.53
73338;BME280;61575;49.908;35.556;2023-11-19T00:03:16;99577.69;;;-1.92;79.62
73338;BME280;61575;49.908;35.556;2023-11-19T00:06:18;99576.16;;;-1.96;79.81
73338;BME280;61575;49.908;35.556;2023-11-19T00:09:20;99576.47;;;-1.86;79.82
73338;BME280;61575;49.908;35.556;2023-11-19T00:12:22;99577.78;;;-1.93;79.71
73338;BME280;61575;49.908;35.556;2023-11-19T00:15:24;99583.03;;;-1.93;79.72
73338;BME280;61575;49.908;35.556;2023-11-19T00:18:27;99586.03;;;-1.99;79.69
73338;BME280;61575;49.908;35.556;2023-11-19T00:21:29;99586.13;;;-2.01;79.71
73338;BME280;61575;49.908;35.556;2023-11-19T00:24:31;99578.91;;;-1.97;80.03
73338;BME280;61575;49.908;35.556;2023-11-19T00:27:33;99582.56;;;-2.00;80.16
73338;BME280;61575;49.908;35.556;2023-11-19T00:30:35;99579.44;;;-2.06;80.30
73338;BME280;61575;49.908;35.556;2023-11-19T00:33:37;99582.06;;;-2.06;80.15
73338;BME280;61575;49.908;35.556;2023-11-19T00:36:51;99584.09;;;-2.12;80.17
73338;BME280;61575;49.908;35.556;2023-11-19T00:39:53;99586.06;;;-2.15;80.33
73338;BME280;61575;49.908;35.556;2023-11-19T00:42:57;99572.81;;;-2.14;80.20
73338;BME280;61575;49.908;35.556;2023-11-19T00:46:02;99548.84;;;-2.23;80.40
73338;BME280;61575;49.908;35.556;2023-11-19T00:49:07;99542.91;;;-2.27;80.55
73338;BME280;61575;49.908;35.556;2023-11-19T00:52:09;99536.88;;;-2.29;80.88
73338;BME280;61575;49.908;35.556;2023-11-19T00:55:11;99544.53;;;-2.40;81.55
73338;BME280;61575;49.908;35.556;2023-11-19T00:58:14;99528.59;;;-2.37;81.22
73338;BME280;61575;49.908;35.556;2023-11-19T01:01:16;99535.19;;;-2.30;81.49
73338;BME280;61575;49.908;35.556;2023-11-19T01:04:19;99531.72;;;-2.30;81.15
73338;BME280;61575;49.908;35.556;2023-11-19T01:07:21;99528.56;;;-2.21;80.98
73338;BME280;61575;49.908;35.556;2023-11-19T01:10:23;99517.53;;;-2.28;81.08
73338;BME280;61575;49.908;35.556;2023-11-19T01:13:26;99517.53;;;-2.28;81.34
73338;BME280;61575;49.908;35.556;2023-11-19T01:16:28;99505.22;;;-2.27;81.43
73338;BME280;61575;49.908;35.556;2023-11-19T01:19:30;99506.16;;;-2.28;81.78
73338;BME280;61575;49.908;35.556;2023-11-19T01:22:32;99505.81;;;-2.22;81.69
73338;BME280;61575;49.908;35.556;2023-11-19T01:25:35;99504.38;;;-2.28;81.95
73338;BME280;61575;49.908;35.556;2023-11-19T01:28:37;99501.66;;;-2.26;81.67
73338;BME280;61575;49.908;35.556;2023-11-19T01:31:53;99503.75;;;-2.17;81.38
73338;BME280;61575;49.908;35.556;2023-11-19T01:34:54;99499.53;;;-2.20;81.66
73338;BME280;61575;49.908;35.556;2023-11-19T01:37:56;99501.94;;;-2.31;81.58
73338;BME280;61575;49.908;35.556;2023-11-19T01:40:58;99500.41;;;-2.35;81.94
73338;BME280;61575;49.908;35.556;2023-11-19T01:44:00;99489.06;;;-2.35;81.70
73338;BME280;61575;49.908;35.556;2023-11-19T01:47:02;99494.81;;;-2.29;81.94
73338;BME280;61575;49.908;35.556;2023-11-19T01:50:06;99496.84;;;-2.34;82.17
73338;BME280;61575;49.908;35.556;2023-11-19T01:53:08;99503.06;;;-2.35;82.25
73338;BME280;61575;49.908;35.556;2023-11-19T01:56:13;99502.59;;;-2.27;82.41
73338;BME280;61575;49.908;35.556;2023-11-19T01:59:16;99501.75;;;-2.28;82.35
73338;BME280;61575;49.908;35.556;2023-11-19T02:02:19;99500.81;;;-2.27;82.41
73338;BME280;61575;49.908;35.556;2023-11-19T02:05:24;99503.81;;;-2.33;82.24
73338;BME280;61575;49.908;35.556;2023-11-19T02:08:27;99496.50;;;-2.28;82.41
73338;BME280;61575;49.908;35.556;2023-11-19T02:11:29;99492.84;;;-2.25;82.28
73338;BME280;61575;49.908;35.556;2023-11-19T02:14:31;99494.63;;;-2.26;82.58
73338;BME280;61575;49.908;35.556;2023-11-19T02:17:34;99492.34;;;-2.32;82.25
73338;BME280;61575;49.908;35.556;2023-11-19T02:20:36;99489.41;;;-2.42;82.78
73338;BME280;61575;49.908;35.556;2023-11-19T02:23:38;99488.56;;;-2.42;83.01
73338;BME280;61575;49.908;35.556;2023-11-19T02:26:48;99481.63;;;-2.43;83.30
73338;BME280;61575;49.908;35.556;2023-11-19T02:29:54;99481.91;;;-2.33;83.01
73338;BME280;61575;49.908;35.556;2023-11-19T02:32:59;99478.91;;;-2.42;83.15
73338;BME280;61575;49.908;35.556;2023-11-19T02:36:05;99473.19;;;-2.34;83.42
73338;BME280;61575;49.908;35.556;2023-11-19T02:39:09;99474.41;;;-2.39;83.28
73338;BME280;61575;49.908;35.556;2023-11-19T02:42:14;99477.88;;;-2.39;83.56
73338;BME280;61575;49.908;35.556;2023-11-19T02:45:16;99476.25;;;-2.42;83.98
73338;BME280;61575;49.908;35.556;2023-11-19T02:48:18;99470.72;;;-2.37;83.88
73338;BME280;61575;49.908;35.556;2023-11-19T02:51:20;99475.81;;;-2.34;84.08
73338;BME280;61575;49.908;35.556;2023-11-19T02:54:23;99470.78;;;-2.53;84.76
73338;BME280;61575;49.908;35.556;2023-11-19T02:57:31;99468.06;;;-2.51;85.42
73338;BME280;61575;49.908;35.556;2023-11-19T03:00:34;99472.97;;;-2.45;85.10
73338;BME280;61575;49.908;35.556;2023-11-19T03:03:39;99473.81;;;-2.45;85.48
73338;BME280;61575;49.908;35.556;2023-11-19T03:06:42;99467.72;;;-2.45;85.54
73338;BME280;61575;49.908;35.556;2023-11-19T03:09:44;99468.66;;;-2.46;85.45
73338;BME280;61575;49.908;35.556;2023-11-19T03:12:46;99474.00;;;-2.48;85.87
73338;BME280;61575;49.908;35.556;2023-11-19T03:15:48;99472.88;;;-2.44;85.60
73338;BME280;61575;49.908;35.556;2023-11-19T03:18:51;99474.00;;;-2.48;86.15
73338;BME280;61575;49.908;35.556;2023-11-19T03:21:53;99469.84;;;-2.52;86.10
73338;BME280;61575;49.908;35.556;2023-11-19T03:24:55;99459.25;;;-2.50;85.87
73338;BME280;61575;49.908;35.556;2023-11-19T03:27:57;99455.69;;;-2.49;86.21
73338;BME280;61575;49.908;35.556;2023-11-19T03:31:00;99456.63;;;-2.50;86.50
73338;BME280;61575;49.908;35.556;2023-11-19T03:34:02;99447.03;;;-2.51;86.67
73338;BME280;61575;49.908;35.556;2023-11-19T03:37:05;99440.06;;;-2.52;86.90
73338;BME280;61575;49.908;35.556;2023-11-19T03:40:07;99441.78;;;-2.51;86.88
73338;BME280;61575;49.908;35.556;2023-11-19T03:43:09;99453.97;;;-2.50;86.86
73338;BME280;61575;49.908;35.556;2023-11-19T03:46:18;99436.34;;;-2.48;86.72
73338;BME280;61575;49.908;35.556;2023-11-19T03:49:21;99434.38;;;-2.45;86.95
73338;BME280;61575;49.908;35.556;2023-11-19T03:52:23;99428.63;;;-2.51;87.41
73338;BME280;61575;49.908;35.556;2023-11-19T03:55:26;99429.13;;;-2.45;86.74
73338;BME280;61575;49.908;35.556;2023-11-19T03:58:28;99424.88;;;-2.47;86.98
73338;BME280;61575;49.908;35.556;2023-11-19T04:01:30;99404.59;;;-2.45;87.13
73338;BME280;61575;49.908;35.556;2023-11-19T04:04:32;99422.16;;;-2.46;87.06
73338;BME280;61575;49.908;35.556;2023-11-19T04:07:35;99409.88;;;-2.45;87.20
73338;BME280;61575;49.908;35.556;2023-11-19T04:10:37;99412.03;;;-2.37;87.01
73338;BME280;61575;49.908;35.556;2023-11-19T04:13:40;99407.22;;;-2.45;86.91
73338;BME280;61575;49.908;35.556;2023-11-19T04:16:42;99403.66;;;-2.44;87.13
73338;BME280;61575;49.908;35.556;2023-11-19T04:19:44;99405.63;;;-2.48;87.18
73338;BME280;61575;49.908;35.556;2023-11-19T04:22:46;99407.31;;;-2.47;87.03
73338;BME280;61575;49.908;35.556;2023-11-19T04:25:48;99407.59;;;-2.51;87.14
73338;BME280;61575;49.908;35.556;2023-11-19T04:28:50;99409.28;;;-2.50;87.46
73338;BME280;61575;49.908;35.556;2023-11-19T04:31:54;99414.84;;;-2.41;87.05
73338;BME280;61575;49.908;35.556;2023-11-19T04:34:56;99403.31;;;-2.38;86.91
73338;BME280;61575;49.908;35.556;2023-11-19T04:37:58;99400.75;;;-2.39;87.03
73338;BME280;61575;49.908;35.556;2023-11-19T04:41:01;99391.28;;;-2.42;87.32
73338;BME280;61575;49.908;35.556;2023-11-19T04:44:03;99395.41;;;-2.38;87.59
73338;BME280;61575;49.908;35.556;2023-11-19T04:47:05;99395.22;;;-2.35;87.61
73338;BME280;61575;49.908;35.556;2023-11-19T04:50:07;99410.25;;;-2.37;87.65
73338;BME280;61575;49.908;35.556;2023-11-19T04:53:13;99410.16;;;-2.35;87.80
73338;BME280;61575;49.908;35.556;2023-11-19T04:56:16;99398.63;;;-2.33;87.37
73338;BME280;61575;49.908;35.556;2023-11-19T04:59:21;99397.59;;;-2.30;87.50
73338;BME280;61575;49.908;35.556;2023-11-19T05:02:23;99404.06;;;-2.36;87.31
73338;BME280;61575;49.908;35.556;2023-11-19T05:05:25;99404.34;;;-2.26;87.57
73338;BME280;61575;49.908;35.556;2023-11-19T05:08:27;99410.47;;;-2.26;87.45
73338;BME280;61575;49.908;35.556;2023-11-19T05:11:29;99406.88;;;-2.25;87.42
73338;BME280;61575;49.908;35.556;2023-11-19T05:14:31;99417.69;;;-2.15;87.48
73338;BME280;61575;49.908;35.556;2023-11-19T05:17:33;99407.66;;;-2.09;86.94
73338;BME280;61575;49.908;35.556;2023-11-19T05:20:35;99416.66;;;-2.13;87.11
73338;BME280;61575;49.908;35.556;2023-11-19T05:23:37;99414.97;;;-2.14;87.34
73338;BME280;61575;49.908;35.556;2023-11-19T05:26:39;99415.66;;;-2.10;87.56
73338;BME280;61575;49.908;35.556;2023-11-19T05:29:42;99431.63;;;-2.13;87.53
73338;BME280;61575;49.908;35.556;2023-11-19T05:32:45;99433.88;;;-2.07;87.70
73338;BME280;61575;49.908;35.556;2023-11-19T05:35:47;99424.75;;;-2.16;87.62
73338;BME280;61575;49.908;35.556;2023-11-19T05:38:49;99424.75;;;-2.01;87.42
73338;BME280;61575;49.908;35.556;2023-11-19T05:41:51;99416.75;;;-2.14;87.59
73338;BME280;61575;49.908;35.556;2023-11-19T05:44:53;99422.59;;;-2.09;87.88
73338;BME280;61575;49.908;35.556;2023-11-19T05:47:55;99423.81;;;-2.00;88.00
73338;BME280;61575;49.908;35.556;2023-11-19T05:50:57;99422.50;;;-1.93;87.68
73338;BME280;61575;49.908;35.556;2023-11-19T05:53:59;99429.47;;;-1.92;87.98
73338;BME280;61575;49.908;35.556;2023-11-19T05:57:01;99428.34;;;-1.88;87.89
73338;BME280;61575;49.908;35.556;2023-11-19T06:00:04;99419.69;;;-1.90;88.02
73338;BME280;61575;49.908;35.556;2023-11-19T06:03:12;99420.91;;;-1.82;87.95
73338;BME280;61575;49.908;35.556;2023-11-19T06:06:15;99421.75;;;-1.81;88.18
73338;BME280;61575;49.908;35.556;2023-11-19T06:09:17;99426.94;;;-1.80;88.02
73338;BME280;61575;49.908;35.556;2023-11-19T06:12:20;99424.47;;;-1.83;88.09
73338;BME280;61575;49.908;35.556;2023-11-19T06:15:22;99424.19;;;-1.78;88.20
73338;BME280;61575;49.908;35.556;2023-11-19T06:18:24;99422.50;;;-1.79;88.11
73338;BME280;61575;49.908;35.556;2023-11-19T06:21:27;99410.84;;;-1.75;88.31
73338;BME280;61575;49.908;35.556;2023-11-19T06:24:29;99402.66;;;-1.70;88.44
73338;BME280;61575;49.908;35.556;2023-11-19T06:27:31;99401.25;;;-1.62;88.34
73338;BME280;61575;49.908;35.556;2023-11-19T06:30:33;99410.75;;;-1.59;88.38
73338;BME280;61575;49.908;35.556;2023-11-19T06:33:35;99398.22;;;-1.56;88.31
73338;BME280;61575;49.908;35.556;2023-11-19T06:36:37;99389.03;;;-1.63;88.17
73338;BME280;61575;49.908;35.556;2023-11-19T06:39:40;99383.84;;;-1.64;88.71
73338;BME280;61575;49.908;35.556;2023-11-19T06:42:42;99385.75;;;-1.66;88.82
73338;BME280;61575;49.908;35.556;2023-11-19T06:45:44;99378.69;;;-1.66;89.10
73338;BME280;61575;49.908;35.556;2023-11-19T06:48:46;99368.16;;;-1.66;89.29
73338;BME280;61575;49.908;35.556;2023-11-19T06:51:48;99367.88;;;-1.61;89.27
73338;BME280;61575;49.908;35.556;2023-11-19T06:54:50;99370.50;;;-1.61;89.31
73338;BME280;61575;49.908;35.556;2023-11-19T06:57:53;99370.31;;;-1.58;89.43
73338;BME280;61575;49.908;35.556;2023-11-19T07:00:55;99357.44;;;-1.63;89.00
73338;BME280;61575;49.908;35.556;2023-11-19T07:03:57;99365.88;;;-1.58;89.12
73338;BME280;61575;49.908;35.556;2023-11-19T07:07:00;99356.41;;;-1.60;89.33
73338;BME280;61575;49.908;35.556;2023-11-19T07:10:02;99360.63;;;-1.58;89.36
73338;BME280;61575;49.908;35.556;2023-11-19T07:13:06;99353.38;;;-1.54;89.32
73338;BME280;61575;49.908;35.556;2023-11-19T07:16:08;99353.56;;;-1.57;89.56
73338;BME280;61575;49.908;35.556;2023-11-19T07:19:13;99358.25;;;-1.48;89.31
73338;BME280;61575;49.908;35.556;2023-11-19T07:22:16;99350.34;;;-1.48;89.31
73338;BME280;61575;49.908;35.556;2023-11-19T07:25:19;99343.38;;;-1.49;89.18
73338;BME280;61575;49.908;35.556;2023-11-19T07:28:21;99341.59;;;-1.49;89.50
73338;BME280;61575;49.908;35.556;2023-11-19T07:31:23;99335.94;;;-1.42;89.27
73338;BME280;61575;49.908;35.556;2023-11-19T07:34:25;99334.16;;;-1.42;89.15
73338;BME280;61575;49.908;35.556;2023-11-19T07:37:27;99325.75;;;-1.34;89.24
73338;BME280;61575;49.908;35.556;2023-11-19T07:40:29;99326.16;;;-1.40;89.31
73338;BME280;61575;49.908;35.556;2023-11-19T07:43:31;99334.59;;;-1.35;89.38
73338;BME280;61575;49.908;35.556;2023-11-19T07:46:33;99331.75;;;-1.32;89.30
73338;BME280;61575;49.908;35.556;2023-11-19T07:49:35;99328.38;;;-1.34;89.36
73338;BME280;61575;49.908;35.556;2023-11-19T07:52:37;99321.97;;;-1.30;89.52
73338;BME280;61575;49.908;35.556;2023-11-19T07:55:39;99316.50;;;-1.27;89.61
73338;BME280;61575;49.908;35.556;2023-11-19T07:58:43;99322.13;;;-1.19;89.59
73338;BME280;61575;49.908;35.556;2023-11-19T08:01:45;99319.47;;;-1.19;89.81
73338;BME280;61575;49.908;35.556;2023-11-19T08:04:47;99310.44;;;-1.15;89.60
73338;BME280;61575;49.908;35.556;2023-11-19T08:07:52;99312.75;;;-1.11;89.43
73338;BME280;61575;49.908;35.556;2023-11-19T08:10:55;99306.41;;;-1.08;89.40
73338;BME280;61575;49.908;35.556;2023-11-19T08:13:58;99297.16;;;-1.01;89.39
73338;BME280;61575;49.908;35.556;2023-11-19T08:17:00;99300.00;;;-1.04;89.51
73338;BME280;61575;49.908;35.556;2023-11-19T08:20:03;99300.41;;;-0.97;89.53
73338;BME280;61575;49.908;35.556;2023-11-19T08:23:06;99307.81;;;-0.90;89.38
73338;BME280;61575;49.908;35.556;2023-11-19T08:26:09;99306.56;;;-0.84;89.15
73338;BME280;61575;49.908;35.556;2023-11-19T08:29:11;99307.53;;;-0.72;89.03
73338;BME280;61575;49.908;35.556;2023-11-19T08:32:13;99295.50;;;-0.77;88.95
73338;BME280;61575;49.908;35.556;2023-11-19T08:35:15;99298.66;;;-0.71;88.94
73338;BME280;61575;49.908;35.556;2023-11-19T08:38:17;99293.91;;;-0.66;88.68
73338;BME280;61575;49.908;35.556;2023-11-19T08:41:32;99295.72;;;-0.67;88.65
73338;BME280;61575;49.908;35.556;2023-11-19T08:44:35;99295.09;;;-0.58;88.75
73338;BME280;61575;49.908;35.556;2023-11-19T08:47:37;99284.53;;;-0.58;88.43
73338;BME280;61575;49.908;35.556;2023-11-19T08:50:39;99273.56;;;-0.64;88.75
73338;BME280;61575;49.908;35.556;2023-11-19T08:53:41;99273.34;;;-0.61;88.84
73338;BME280;61575;49.908;35.556;2023-11-19T08:56:44;99267.44;;;-0.52;88.83
73338;BME280;61575;49.908;35.556;2023-11-19T08:59:45;99274.63;;;-0.41;88.80
73338;BME280;61575;49.908;35.556;2023-11-19T09:02:48;99260.16;;;-0.49;88.50
73338;BME280;61575;49.908;35.556;2023-11-19T09:05:53;99258.38;;;-0.48;88.60
73338;BME280;61575;49.908;35.556;2023-11-19T09:08:55;99254.34;;;-0.41;88.90
73338;BME280;61575;49.908;35.556;2023-11-19T09:12:03;99259.41;;;-0.38;88.84
73338;BME280;61575;49.908;35.556;2023-11-19T09:15:08;99245.91;;;-0.33;88.64
73338;BME280;61575;49.908;35.556;2023-11-19T09:18:12;99240.84;;;-0.36;88.73
73338;BME280;61575;49.908;35.556;2023-11-19T09:21:14;99229.56;;;-0.38;89.14
73338;BME280;61575;49.908;35.556;2023-11-19T09:24:16;99221.22;;;-0.32;89.00
73338;BME280;61575;49.908;35.556;2023-11-19T09:27:19;99229.22;;;-0.21;89.28
73338;BME280;61575;49.908;35.556;2023-11-19T09:30:21;99219.09;;;-0.27;89.33
73338;BME280;61575;49.908;35.556;2023-11-19T09:33:23;99214.75;;;-0.28;89.26
73338;BME280;61575;49.908;35.556;2023-11-19T09:36:25;99202.41;;;-0.28;89.47
73338;BME280;61575;49.908;35.556;2023-11-19T09:39:28;99216.25;;;-0.37;89.50
73338;BME280;61575;49.908;35.556;2023-11-19T09:42:40;99201.16;;;-0.35;89.57
73338;BME280;61575;49.908;35.556;2023-11-19T09:45:51;99195.16;;;-0.37;90.19
73338;BME280;61575;49.908;35.556;2023-11-19T09:48:53;99196.44;;;-0.42;90.29
73338;BME280;61575;49.908;35.556;2023-11-19T09:51:58;99189.56;;;-0.32;90.20
73338;BME280;61575;49.908;35.556;2023-11-19T09:55:00;99199.03;;;-0.30;89.98
73338;BME280;61575;49.908;35.556;2023-11-19T09:58:02;99195.88;;;-0.35;90.34
73338;BME280;61575;49.908;35.556;2023-11-19T10:01:05;99197.56;;;-0.34;90.83
73338;BME280;61575;49.908;35.556;2023-11-19T10:04:15;99188.72;;;-0.33;90.58
73338;BME280;61575;49.908;35.556;2023-11-19T10:07:19;99194.91;;;-0.21;90.52
73338;BME280;61575;49.908;35.556;2023-11-19T10:10:21;99183.91;;;-0.15;90.31
73338;BME280;61575;49.908;35.556;2023-11-19T10:13:26;99175.38;;;-0.19;90.35
73338;BME280;61575;49.908;35.556;2023-11-19T10:16:34;99173.06;;;-0.23;90.43
73338;BME280;61575;49.908;35.556;2023-11-19T10:19:36;99173.25;;;-0.14;90.24
73338;BME280;61575;49.908;35.556;2023-11-19T10:22:38;99169.03;;;-0.16;89.97
73338;BME280;61575;49.908;35.556;2023-11-19T10:25:40;99154.25;;;-0.19;90.44
73338;BME280;61575;49.908;35.556;2023-11-19T10:28:42;99139.88;;;-0.15;90.46
73338;BME280;61575;49.908;35.556;2023-11-19T10:31:55;99129.31;;;-0.15;90.32
73338;BME280;61575;49.908;35.556;2023-11-19T10:35:18;99129.22;;;-0.13;90.19
73338;BME280;61575;49.908;35.556;2023-11-19T10:38:20;99122.38;;;-0.16;90.40
73338;BME280;61575;49.908;35.556;2023-11-19T10:41:30;99123.09;;;-0.14;90.73
73338;BME280;61575;49.908;35.556;2023-11-19T10:44:34;99119.00;;;-0.18;91.20
73338;BME280;61575;49.908;35.556;2023-11-19T10:47:41;99116.25;;;-0.16;90.84
73338;BME280;61575;49.908;35.556;2023-11-19T10:50:46;99111.31;;;-0.21;90.83
73338;BME280;61575;49.908;35.556;2023-11-19T10:53:49;99099.34;;;-0.14;90.72
73338;BME280;61575;49.908;35.556;2023-11-19T10:56:58;99100.41;;;-0.16;90.72
73338;BME280;61575;49.908;35.556;2023-11-19T11:00:02;99094.50;;;-0.20;91.00
73338;BME280;61575;49.908;35.556;2023-11-19T11:03:17;99093.00;;;-0.11;91.12
73338;BME280;61575;49.908;35.556;2023-11-19T11:06:21;99084.56;;;-0.16;91.13
73338;BME280;61575;49.908;35.556;2023-11-19T11:09:26;99088.06;;;-0.16;91.06
73338;BME280;61575;49.908;35.556;2023-11-19T11:12:32;99088.28;;;-0.19;91.26
73338;BME280;61575;49.908;35.556;2023-11-19T11:15:37;99078.47;;;-0.17;91.25
73338;BME280;61575;49.908;35.556;2023-11-19T11:18:39;99080.59;;;-0.22;91.72
73338;BME280;61575;49.908;35.556;2023-11-19T11:21:45;99067.19;;;-0.19;91.68
73338;BME280;61575;49.908;35.556;2023-11-19T11:25:10;99067.44;;;-0.10;91.50
73338;BME280;61575;49.908;35.556;2023-11-19T11:28:26;99070.69;;;-0.07;91.44
73338;BME280;61575;49.908;35.556;2023-11-19T11:31:48;99066.72;;;-0.13;91.63
73338;BME280;61575;49.908;35.556;2023-11-19T11:38:24;99050.38;;;-0.18;91.87
73338;BME280;61575;49.908;35.556;2023-11-19T11:41:27;99045.84;;;-0.16;91.88
73338;BME280;61575;49.908;35.556;2023-11-19T11:48:15;99023.75;;;-0.15;91.85
73338;BME280;61575;49.908;35.556;2023-11-19T11:54:46;99013.59;;;-0.08;92.11
73338;BME280;61575;49.908;35.556;2023-11-19T11:57:48;98998.00;;;-0.11;92.30
73338;BME280;61575;49.908;35.556;2023-11-19T12:00:51;98992.72;;;-0.11;92.28
73338;BME280;61575;49.908;35.556;2023-11-19T12:03:55;98993.78;;;-0.14;92.37
73338;BME280;61575;49.908;35.556;2023-11-19T12:07:06;98993.56;;;-0.10;92.49
73338;BME280;61575;49.908;35.556;2023-11-19T12:10:09;98987.28;;;-0.21;92.65
73338;BME280;61575;49.908;35.556;2023-11-19T12:13:15;98975.88;;;-0.21;92.80
73338;BME280;61575;49.908;35.556;2023-11-19T12:16:20;98963.31;;;-0.18;92.69
73338;BME280;61575;49.908;35.556;2023-11-19T12:19:23;98962.09;;;-0.25;93.11
73338;BME280;61575;49.908;35.556;2023-11-19T12:22:25;98971.00;;;-0.15;92.88
73338;BME280;61575;49.908;35.556;2023-11-19T12:25:27;98976.66;;;-0.08;92.88
73338;BME280;61575;49.908;35.556;2023-11-19T12:28:29;98961.50;;;-0.17;93.21
73338;BME280;61575;49.908;35.556;2023-11-19T12:31:31;98966.09;;;-0.08;93.12
73338;BME280;61575;49.908;35.556;2023-11-19T12:34:33;98974.13;;;-0.09;92.99
73338;BME280;61575;49.908;35.556;2023-11-19T12:37:42;98975.19;;;-0.12;93.13
73338;BME280;61575;49.908;35.556;2023-11-19T12:40:44;98964.63;;;-0.12;93.28
73338;BME280;61575;49.908;35.556;2023-11-19T12:43:46;98973.66;;;-0.03;93.03
73338;BME280;61575;49.908;35.556;2023-11-19T12:47:07;98965.63;;;-0.02;93.02
73338;BME280;61575;49.908;35.556;2023-11-19T12:50:10;98971.63;;;0.00;92.89
73338;BME280;61575;49.908;35.556;2023-11-19T12:53:12;98963.59;;;0.02;93.06
73338;BME280;61575;49.908;35.556;2023-11-19T12:56:14;98964.53;;;0.01;93.11
73338;BME280;61575;49.908;35.556;2023-11-19T12:59:17;98966.22;;;0.02;93.15
73338;BME280;61575;49.908;35.556;2023-11-19T13:02:19;98976.28;;;-0.03;93.35
73338;BME280;61575;49.908;35.556;2023-11-19T13:05:29;98971.13;;;-0.05;93.43
73338;BME280;61575;49.908;35.556;2023-11-19T13:11:42;98964.06;;;-0.04;93.37
73338;BME280;61575;49.908;35.556;2023-11-19T13:14:47;98959.50;;;-0.02;93.55
73338;BME280;61575;49.908;35.556;2023-11-19T13:17:49;98956.03;;;0.08;93.42
73338;BME280;61575;49.908;35.556;2023-11-19T13:20:51;98958.44;;;0.00;93.37
73338;BME280;61575;49.908;35.556;2023-11-19T13:23:53;98951.00;;;0.05;93.39
73338;BME280;61575;49.908;35.556;2023-11-19T13:26:55;98945.72;;;0.05;93.43
73338;BME280;61575;49.908;35.556;2023-11-19T13:29:57;98933.09;;;-0.02;93.76
73338;BME280;61575;49.908;35.556;2023-11-19T13:33:01;98927.47;;;0.02;93.69
73338;BME280;61575;49.908;35.556;2023-11-19T13:36:04;98935.16;;;0.05;93.59
73338;BME280;61575;49.908;35.556;2023-11-19T13:39:09;98924.59;;;0.05;93.71
73338;BME280;61575;49.908;35.556;2023-11-19T13:42:14;98916.69;;;0.05;93.86
73338;BME280;61575;49.908;35.556;2023-11-19T13:45:16;98918.59;;;0.03;93.85
73338;BME280;61575;49.908;35.556;2023-11-19T13:48:20;98915.13;;;0.03;93.97
73338;BME280;61575;49.908;35.556;2023-11-19T13:51:22;98907.66;;;-0.03;94.42
73338;BME280;61575;49.908;35.556;2023-11-19T13:54:24;98916.53;;;-0.04;94.72
73338;BME280;61575;49.908;35.556;2023-11-19T13:57:26;98902.28;;;-0.02;94.27
73338;BME280;61575;49.908;35.556;2023-11-19T14:00:28;98913.91;;;-0.04;94.46
73338;BME280;61575;49.908;35.556;2023-11-19T14:03:30;98915.13;;;0.03;94.33
73338;BME280;61575;49.908;35.556;2023-11-19T14:06:32;98915.97;;;0.03;94.37
73338;BME280;61575;49.908;35.556;2023-11-19T14:09:35;98910.78;;;0.02;94.80
73338;BME280;61575;49.908;35.556;2023-11-19T14:12:37;98918.47;;;-0.06;94.80
73338;BME280;61575;49.908;35.556;2023-11-19T14:15:40;98919.56;;;0.02;94.66
73338;BME280;61575;49.908;35.556;2023-11-19T14:18:42;98919.91;;;-0.02;94.91
73338;BME280;61575;49.908;35.556;2023-11-19T14:21:44;98917.75;;;0.03;94.81
73338;BME280;61575;49.908;35.556;2023-11-19T14:24:47;98918.13;;;-0.02;95.13
73338;BME280;61575;49.908;35.556;2023-11-19T14:27:49;98930.34;;;-0.01;95.07
73338;BME280;61575;49.908;35.556;2023-11-19T14:30:51;98921.97;;;0.05;94.92
73338;BME280;61575;49.908;35.556;2023-11-19T14:33:58;98921.84;;;0.07;94.99
73338;BME280;61575;49.908;35.556;2023-11-19T14:37:01;98934.19;;;0.06;94.92
73338;BME280;61575;49.908;35.556;2023-11-19T14:40:03;98931.44;;;0.08;95.22
73338;BME280;61575;49.908;35.556;2023-11-19T14:43:07;98928.91;;;0.06;95.25
73338;BME280;61575;49.908;35.556;2023-11-19T14:46:12;98939.38;;;0.08;95.29
73338;BME280;61575;49.908;35.556;2023-11-19T14:49:14;98942.72;;;0.10;95.50
73338;BME280;61575;49.908;35.556;2023-11-19T14:52:16;98936.22;;;0.03;95.44
73338;BME280;61575;49.908;35.556;2023-11-19T14:55:19;98942.84;;;0.08;95.40
73338;BME280;61575;49.908;35.556;2023-11-19T14:58:21;98935.63;;;-0.01;95.90
73338;BME280;61575;49.908;35.556;2023-11-19T15:01:23;98932.16;;;0.10;95.60
73338;BME280;61575;49.908;35.556;2023-11-19T15:04:25;98933.72;;;0.12;95.37
73338;BME280;61575;49.908;35.556;2023-11-19T15:07:27;98933.13;;;0.09;95.79
73338;BME280;61575;49.908;35.556;2023-11-19T15:10:29;98926.88;;;0.10;95.57
73338;BME280;61575;49.908;35.556;2023-11-19T15:13:31;98930.00;;;0.15;95.42
73338;BME280;61575;49.908;35.556;2023-11-19T15:16:34;98927.38;;;0.15;95.50
73338;BME280;61575;49.908;35.556;2023-11-19T15:19:36;98934.56;;;0.13;95.57
73338;BME280;61575;49.908;35.556;2023-11-19T15:22:38;98930.38;;;0.22;95.66
73338;BME280;61575;49.908;35.556;2023-11-19T15:25:42;98921.13;;;0.16;95.53
73338;BME280;61575;49.908;35.556;2023-11-19T15:28:44;98914.41;;;0.12;95.74
73338;BME280;61575;49.908;35.556;2023-11-19T15:31:47;98923.53;;;0.19;95.62
73338;BME280;61575;49.908;35.556;2023-11-19T15:34:48;98922.09;;;0.15;95.83
73338;BME280;61575;49.908;35.556;2023-11-19T15:37:50;98920.66;;;0.22;95.46
73338;BME280;61575;49.908;35.556;2023-11-19T15:40:52;98914.88;;;0.17;95.70
73338;BME280;61575;49.908;35.556;2023-11-19T15:43:54;98913.31;;;0.14;96.03
73338;BME280;61575;49.908;35.556;2023-11-19T15:46:57;98921.38;;;0.24;96.00
73338;BME280;61575;49.908;35.556;2023-11-19T15:49:59;98914.78;;;0.18;95.85
73338;BME280;61575;49.908;35.556;2023-11-19T15:53:01;98911.06;;;0.21;96.05
73338;BME280;61575;49.908;35.556;2023-11-19T15:56:04;98907.69;;;0.19;95.98
73338;BME280;61575;49.908;35.556;2023-11-19T15:59:07;98894.72;;;0.27;95.77
73338;BME280;61575;49.908;35.556;2023-11-19T16:02:10;98895.09;;;0.23;96.12
73338;BME280;61575;49.908;35.556;2023-11-19T16:05:12;98894.59;;;0.29;95.94
73338;BME280;61575;49.908;35.556;2023-11-19T16:08:16;98886.09;;;0.25;96.00
73338;BME280;61575;49.908;35.556;2023-11-19T16:11:18;98887.16;;;0.23;95.92
73338;BME280;61575;49.908;35.556;2023-11-19T16:14:20;98872.66;;;0.28;95.92